Time;durP1;ratioP1;P1;durP2;ratioP2;P2;SDS_P1;SDS_P2;PMS_P1;PMS_P2;Temp;Humidity;BMP_temperature;BMP_pressure;BME280_temperature;BME280_humidity;BME280_pressure;Samples;Min_cycle;Max_cycle;Signal;HPM_P1;HPM_P2
2022/05/27 00:02:10;;;;;;;2.00;1.70;;;22.20;58.20;23.50;101226.00;;;;4991738;28;20176;-49
2022/05/27 00:04:36;;;;;;;1.60;1.50;;;22.20;58.30;23.50;101225.00;;;;4991704;28;20271;-49
2022/05/27 00:07:02;;;;;;;2.03;1.60;;;22.20;58.20;23.50;101219.00;;;;4988790;28;20176;-49
2022/05/27 00:09:28;;;;;;;1.70;1.57;;;22.20;58.20;23.50;101212.00;;;;4990082;28;20203;-49
2022/05/27 00:11:54;;;;;;;1.63;1.50;;;22.10;58.20;23.50;101229.00;;;;4990245;28;20200;-49
2022/05/27 00:14:19;;;;;;;1.60;1.50;;;22.10;58.30;23.50;101202.00;;;;4990333;28;20787;-49
2022/05/27 00:16:45;;;;;;;1.77;1.50;;;22.10;58.40;23.50;101214.00;;;;4990582;28;20176;-48
2022/05/27 00:19:11;;;;;;;1.77;1.60;;;22.10;58.40;23.40;101215.00;;;;4991418;28;20180;-49
2022/05/27 00:21:37;;;;;;;2.83;1.70;;;22.10;58.40;23.40;101209.00;;;;4992774;28;20191;-48
2022/05/27 00:24:02;;;;;;;1.50;1.40;;;22.10;58.40;23.40;101212.00;;;;4991015;28;20180;-50
2022/05/27 00:26:28;;;;;;;2.23;1.70;;;22.10;58.40;23.40;101203.00;;;;4991625;28;20258;-49
2022/05/27 00:28:54;;;;;;;1.70;1.60;;;22.10;58.40;23.40;101203.00;;;;4990666;28;20578;-49
2022/05/27 00:31:20;;;;;;;1.93;1.70;;;22.10;58.40;23.40;101200.00;;;;4991290;28;20204;-49
2022/05/27 00:33:46;;;;;;;1.60;1.50;;;22.10;58.40;23.40;101212.00;;;;4990007;28;20188;-50
2022/05/27 00:36:12;;;;;;;1.80;1.70;;;22.10;58.40;23.20;101193.00;;;;4989846;28;20243;-49
2022/05/27 00:38:38;;;;;;;1.60;1.50;;;22.00;58.30;23.30;101194.00;;;;4989272;28;20645;-49
2022/05/27 00:41:03;;;;;;;1.20;1.20;;;22.10;58.40;23.40;101197.00;;;;4995082;28;20226;-50
2022/05/27 00:43:29;;;;;;;1.40;1.40;;;22.00;58.30;23.30;101201.00;;;;4996135;28;20188;-49
2022/05/27 00:46:04;;;;;;;1.70;1.60;;;22.00;58.30;23.30;101196.00;;;;4989895;28;20182;-48
2022/05/27 00:48:30;;;;;;;1.73;1.50;;;22.10;58.40;23.30;101191.00;;;;4988291;28;20343;-49
2022/05/27 00:50:57;;;;;;;2.00;1.60;;;22.00;58.40;23.30;101200.00;;;;4972519;28;20208;-49
2022/05/27 00:53:42;;;;;;;3.73;1.93;;;22.00;58.50;23.30;101202.00;;;;4988376;28;20447;-50
2022/05/27 00:56:08;;;;;;;1.63;1.53;;;22.00;58.60;23.30;101191.00;;;;4972482;28;20438;-50
2022/05/27 00:58:43;;;;;;;1.60;1.50;;;22.00;58.60;23.30;101182.00;;;;4988236;28;20204;-49
2022/05/27 01:01:09;;;;;;;2.13;1.70;;;22.00;58.50;23.30;101184.00;;;;4972219;28;20192;-49
2022/05/27 01:03:34;;;;;;;1.63;1.37;;;22.00;58.70;23.30;101191.00;;;;4972016;28;20183;-48
2022/05/27 01:06:00;;;;;;;1.70;1.60;;;21.90;58.70;23.30;101180.00;;;;4971740;28;20656;-49
2022/05/27 01:08:28;;;;;;;1.73;1.60;;;21.90;58.70;23.30;101189.00;;;;4989122;28;20184;-49
2022/05/27 01:11:50;;;;;;;1.70;1.60;;;21.90;58.70;23.30;101183.00;;;;4987896;28;20665;-49
2022/05/27 01:14:28;;;;;;;1.40;1.30;;;21.90;58.70;23.20;101187.00;;;;4989000;28;20701;-49
2022/05/27 01:17:13;;;;;;;2.07;1.60;;;21.90;58.80;23.10;101182.00;;;;4987945;28;20172;-50
2022/05/27 01:20:19;;;;;;;2.23;1.53;;;21.90;58.80;23.20;101180.00;;;;4987696;28;20188;-49
2022/05/27 01:23:13;;;;;;;1.50;1.40;;;21.80;58.70;23.20;101170.00;;;;4975141;28;20287;-48
2022/05/27 01:25:58;;;;;;;1.73;1.60;;;21.90;58.70;23.20;101179.00;;;;4987652;28;20186;-50
2022/05/27 01:28:33;;;;;;;1.80;1.70;;;21.90;58.80;23.10;101183.00;;;;4987582;28;20179;-49
2022/05/27 01:31:48;;;;;;;1.53;1.43;;;21.80;58.70;23.20;101179.00;;;;4987589;28;20202;-48
2022/05/27 01:34:30;;;;;;;1.60;1.50;;;21.90;58.90;23.10;101183.00;;;;4987290;28;20204;-49
2022/05/27 01:37:23;;;;;;;1.50;1.40;;;21.80;58.70;23.10;101182.00;;;;4987582;28;20720;-49
2022/05/27 01:40:08;;;;;;;1.60;1.50;;;21.80;58.70;23.10;101177.00;;;;4973254;28;20199;-49
2022/05/27 01:42:58;;;;;;;1.97;1.70;;;21.90;58.70;23.10;101165.00;;;;4989040;28;20160;-48
2022/05/27 01:45:34;;;;;;;1.60;1.50;;;21.80;58.70;23.10;101168.00;;;;4973314;28;20156;-50
2022/05/27 01:48:26;;;;;;;1.63;1.53;;;21.80;58.70;23.10;101169.00;;;;4971932;28;20222;-49
2022/05/27 01:51:05;;;;;;;2.13;1.80;;;21.80;58.70;23.10;101183.00;;;;4973037;28;20207;-49
2022/05/27 01:53:57;;;;;;;2.00;1.70;;;21.80;58.70;23.10;101175.00;;;;4987233;28;20215;-50
2022/05/27 01:56:39;;;;;;;1.70;1.60;;;21.80;58.70;23.00;101164.00;;;;4973526;28;20267;-49
2022/05/27 01:59:13;;;;;;;1.60;1.50;;;21.80;58.70;23.00;101164.00;;;;4976093;28;20176;-50
2022/05/27 02:01:46;;;;;;;2.00;1.80;;;21.80;58.70;23.00;101173.00;;;;4979568;28;20253;-48
2022/05/27 02:04:28;;;;;;;1.60;1.50;;;21.80;58.70;23.00;101150.00;;;;4974268;28;20655;-49
2022/05/27 02:06:58;;;;;;;2.07;1.50;;;21.70;58.70;23.00;101163.00;;;;4972562;28;20215;-48
2022/05/27 02:09:31;;;;;;;1.80;1.43;;;21.70;58.70;23.00;101153.00;;;;4956231;28;20554;-48
2022/05/27 02:12:00;;;;;;;1.70;1.60;;;21.80;58.80;23.00;101166.00;;;;4972118;28;20271;-49
2022/05/27 02:14:35;;;;;;;1.60;1.50;;;21.70;58.70;23.00;101140.00;;;;4972014;28;20200;-49
2022/05/27 02:17:04;;;;;;;2.00;1.80;;;21.80;58.70;23.00;101165.00;;;;4972063;28;20254;-48
2022/05/27 02:19:49;;;;;;;1.80;1.70;;;21.70;58.60;23.00;101154.00;;;;4971230;28;20211;-48
2022/05/27 02:22:21;;;;;;;1.73;1.60;;;21.80;58.70;23.00;101152.00;;;;4970874;28;20172;-48
2022/05/27 02:24:56;;;;;;;1.50;1.40;;;21.70;58.70;23.00;101162.00;;;;4956011;28;20177;-49
2022/05/27 02:27:44;;;;;;;2.00;1.70;;;21.70;58.60;23.00;101161.00;;;;4986302;28;20711;-49
2022/05/27 02:30:12;;;;;;;2.63;1.80;;;21.70;58.60;23.00;101161.00;;;;4986937;28;20672;-48
2022/05/27 02:32:44;;;;;;;1.70;1.60;;;21.70;58.60;23.00;101161.00;;;;4987997;28;20176;-48
2022/05/27 02:35:28;;;;;;;1.80;1.70;;;21.70;58.50;23.00;101167.00;;;;4971237;28;20205;-49
2022/05/27 02:37:56;;;;;;;2.10;1.90;;;21.70;58.60;22.90;101152.00;;;;4954427;28;20161;-49
2022/05/27 02:40:41;;;;;;;1.63;1.53;;;21.70;58.60;23.00;101088.00;;;;4970408;28;20295;-49
2022/05/27 02:43:24;;;;;;;1.80;1.70;;;21.70;58.60;22.90;101155.00;;;;4971219;28;20180;-49
2022/05/27 02:46:15;;;;;;;2.10;1.80;;;21.60;58.50;22.90;101160.00;;;;4986616;28;20172;-48
2022/05/27 02:48:50;;;;;;;1.83;1.70;;;21.70;58.60;22.90;101158.00;;;;4973889;28;20226;-50
2022/05/27 02:51:24;;;;;;;1.90;1.60;;;21.70;58.60;22.90;101157.00;;;;4971208;28;20536;-49
2022/05/27 02:54:15;;;;;;;1.80;1.70;;;21.60;58.50;22.90;101155.00;;;;4970727;28;20278;-49
2022/05/27 02:57:06;;;;;;;2.10;1.80;;;21.60;58.50;22.90;101150.00;;;;4987060;28;20196;-49
2022/05/27 02:59:34;;;;;;;1.83;1.73;;;21.70;58.60;22.90;101147.00;;;;4972031;28;20275;-47
2022/05/27 03:02:12;;;;;;;2.70;1.70;;;21.60;58.70;22.90;101075.00;;;;4972303;28;20293;-48
2022/05/27 03:04:44;;;;;;;2.07;1.90;;;21.60;58.90;22.90;101153.00;;;;4991823;28;20180;-48
2022/05/27 03:07:44;;;;;;;2.33;1.83;;;21.60;58.90;22.90;101143.00;;;;4974917;28;20173;-48
2022/05/27 03:10:33;;;;;;;2.27;2.00;;;21.60;59.00;22.90;101155.00;;;;4990001;28;20727;-48
2022/05/27 03:13:26;;;;;;;1.90;1.80;;;21.60;59.00;22.90;101138.00;;;;4975674;28;20169;-48
2022/05/27 03:16:01;;;;;;;2.00;1.80;;;21.60;59.10;22.90;101147.00;;;;4974929;28;20184;-49
2022/05/27 03:18:35;;;;;;;2.73;2.00;;;21.50;59.20;22.80;101142.00;;;;4993262;28;20172;-48
2022/05/27 03:21:21;;;;;;;2.57;1.90;;;21.50;59.20;22.80;101139.00;;;;5001995;28;20239;-49
2022/05/27 03:24:01;;;;;;;2.43;2.00;;;21.50;59.10;22.80;101142.00;;;;4978271;28;20164;-49
2022/05/27 03:27:04;;;;;;;1.80;1.70;;;21.50;59.00;22.80;101141.00;;;;4990867;28;20240;-49
2022/05/27 03:30:03;;;;;;;3.40;2.00;;;21.50;58.70;22.80;101113.00;;;;4976551;28;20199;-48
2022/05/27 03:33:01;;;;;;;2.07;1.80;;;21.60;58.90;22.80;101127.00;;;;4990353;28;20171;-49
2022/05/27 03:35:51;;;;;;;2.97;2.00;;;21.50;58.70;22.80;101126.00;;;;4989553;28;20780;-49
2022/05/27 03:38:32;;;;;;;2.17;1.97;;;21.60;58.70;22.80;101141.00;;;;4979223;28;20223;-49
2022/05/27 03:41:03;;;;;;;3.13;2.07;;;21.50;58.60;22.80;101135.00;;;;4989099;28;20207;-49
2022/05/27 03:43:29;;;;;;;2.00;1.80;;;21.50;58.50;22.80;101133.00;;;;4991803;28;20388;-49
2022/05/27 03:45:58;;;;;;;2.27;1.97;;;21.50;58.50;22.70;101142.00;;;;4990534;28;20648;-49
2022/05/27 03:48:26;;;;;;;2.10;1.80;;;21.40;58.40;22.70;101141.00;;;;4990948;28;20519;-49
2022/05/27 03:50:55;;;;;;;2.70;1.80;;;21.50;58.50;22.70;101134.00;;;;4989826;28;20500;-49
2022/05/27 03:53:21;;;;;;;2.40;1.97;;;21.50;58.40;22.70;101144.00;;;;4989349;28;20652;-49
2022/05/27 03:55:47;;;;;;;2.13;1.70;;;21.40;58.30;22.70;101138.00;;;;4990601;28;20168;-48
2022/05/27 03:58:14;;;;;;;3.40;2.10;;;21.40;58.30;22.70;101151.00;;;;4990512;28;20176;-49
2022/05/27 04:00:40;;;;;;;2.10;1.90;;;21.40;58.30;22.70;101141.00;;;;4989839;28;20202;-48
2022/05/27 04:03:06;;;;;;;2.13;1.90;;;21.40;58.30;22.70;101130.00;;;;4990954;28;20244;-50
2022/05/27 04:05:31;;;;;;;1.87;1.77;;;21.40;58.30;22.70;101135.00;;;;4990369;28;20716;-49
2022/05/27 04:07:57;;;;;;;2.13;1.90;;;21.40;58.30;22.70;101138.00;;;;4990680;28;20173;-49
2022/05/27 04:10:23;;;;;;;4.00;2.00;;;21.40;58.30;22.70;101130.00;;;;4996870;28;20196;-49
2022/05/27 04:12:49;;;;;;;2.57;1.93;;;21.40;58.50;22.70;101135.00;;;;5002378;28;20218;-50
2022/05/27 04:15:14;;;;;;;2.00;1.80;;;21.40;58.50;22.70;101129.00;;;;5001650;28;20200;-49
2022/05/27 04:17:42;;;;;;;2.07;1.83;;;21.40;58.50;22.70;101127.00;;;;4993941;28;20176;-49
2022/05/27 04:20:14;;;;;;;5.30;2.10;;;21.40;58.40;22.70;101141.00;;;;4991496;28;20203;-48
2022/05/27 04:22:39;;;;;;;3.67;1.97;;;21.40;58.40;22.40;101140.00;;;;4991222;28;20190;-49
2022/05/27 04:25:06;;;;;;;2.70;2.00;;;21.40;58.30;22.70;101138.00;;;;4990681;28;20547;-48
2022/05/27 04:27:32;;;;;;;3.23;1.90;;;21.40;58.30;22.60;101148.00;;;;4991817;28;20160;-48
2022/05/27 04:29:58;;;;;;;4.00;1.93;;;21.30;58.40;22.60;101147.00;;;;4989581;28;20203;-49
2022/05/27 04:32:25;;;;;;;5.97;2.00;;;21.30;58.70;22.70;101146.00;;;;4990159;28;20183;-47
2022/05/27 04:34:54;;;;;;;3.50;2.17;;;21.30;58.70;22.60;101144.00;;;;4989791;28;20802;-49
2022/05/27 04:37:20;;;;;;;3.50;2.00;;;21.30;58.60;22.60;101146.00;;;;4989419;28;20161;-49
2022/05/27 04:39:46;;;;;;;2.20;2.00;;;21.30;58.50;22.60;101146.00;;;;4990197;28;20227;-48
2022/05/27 04:42:12;;;;;;;2.00;1.80;;;21.30;58.50;22.60;101136.00;;;;4990142;28;20200;-50
2022/05/27 04:44:37;;;;;;;3.23;2.00;;;21.30;58.50;22.60;101144.00;;;;4989679;28;20695;-49
2022/05/27 04:47:03;;;;;;;2.87;2.10;;;21.30;58.50;22.60;101140.00;;;;4989483;28;20176;-49
2022/05/27 04:52:13;;;;;;;3.13;1.80;;;21.30;58.50;22.50;101141.00;;;;4989103;28;20171;-50
2022/05/27 04:54:39;;;;;;;3.33;2.00;;;21.30;58.50;22.50;101145.00;;;;4989538;28;20360;-50
2022/05/27 04:57:05;;;;;;;2.00;1.80;;;21.20;58.30;22.50;101140.00;;;;4989242;28;20175;-49
2022/05/27 04:59:35;;;;;;;2.10;1.90;;;21.30;58.40;22.50;101139.00;;;;4989034;28;20485;-50
2022/05/27 05:02:04;;;;;;;2.53;1.93;;;21.30;58.40;22.50;101136.00;;;;4989259;28;20166;-48
2022/05/27 05:04:30;;;;;;;2.80;1.80;;;21.20;58.30;22.50;101149.00;;;;4989560;28;20566;-50
2022/05/27 05:07:00;;;;;;;1.80;1.70;;;21.30;58.40;22.50;101137.00;;;;4988640;28;20197;-48
2022/05/27 05:09:26;;;;;;;2.67;1.80;;;21.20;58.40;22.50;101145.00;;;;4987313;28;20367;-50
2022/05/27 05:11:51;;;;;;;2.03;1.83;;;21.20;58.40;22.50;101153.00;;;;4988771;28;20234;-48
2022/05/27 05:14:17;;;;;;;2.00;1.80;;;21.20;58.40;22.50;101169.00;;;;4989306;28;20295;-49
2022/05/27 05:16:43;;;;;;;1.83;1.73;;;21.20;58.30;22.50;101160.00;;;;4989177;28;20180;-49
2022/05/27 05:19:08;;;;;;;2.00;1.80;;;21.20;58.40;22.50;101167.00;;;;4988071;28;20234;-49
2022/05/27 05:21:34;;;;;;;2.00;1.80;;;21.20;58.40;22.40;101162.00;;;;4987955;28;20195;-49
2022/05/27 05:24:01;;;;;;;2.00;1.73;;;21.20;58.40;22.40;101164.00;;;;4988807;28;20192;-48
2022/05/27 05:26:27;;;;;;;3.30;2.00;;;21.10;58.30;22.40;101169.00;;;;4988973;28;20189;-48
2022/05/27 05:28:53;;;;;;;1.93;1.73;;;21.10;58.30;22.40;101171.00;;;;4991290;28;20231;-49
2022/05/27 05:31:18;;;;;;;1.90;1.80;;;21.10;59.00;22.40;101161.00;;;;4989488;28;20372;-49
2022/05/27 05:33:44;;;;;;;2.00;1.80;;;21.10;58.80;22.40;101167.00;;;;4988444;28;20206;-49
2022/05/27 05:36:10;;;;;;;1.77;1.60;;;21.10;58.40;22.40;101173.00;;;;4988845;28;20175;-50
2022/05/27 05:38:36;;;;;;;2.10;1.90;;;21.10;58.40;22.40;101166.00;;;;4988984;28;20527;-49
2022/05/27 05:41:02;;;;;;;1.83;1.73;;;21.00;58.30;22.30;101174.00;;;;4988857;28;20428;-47
2022/05/27 05:43:27;;;;;;;1.83;1.70;;;21.10;58.40;22.30;101172.00;;;;4989541;28;20185;-48
2022/05/27 05:45:53;;;;;;;1.70;1.60;;;21.00;58.30;22.30;101178.00;;;;4988742;28;20692;-50
2022/05/27 05:48:19;;;;;;;1.70;1.60;;;21.00;58.30;22.30;101169.00;;;;4988572;28;20800;-49
2022/05/27 05:50:44;;;;;;;1.70;1.60;;;21.00;58.40;22.30;101180.00;;;;4988199;28;20206;-49
2022/05/27 05:53:10;;;;;;;2.03;1.70;;;21.00;58.30;22.30;101178.00;;;;4988700;28;20763;-49
2022/05/27 05:55:37;;;;;;;1.90;1.70;;;21.00;58.30;22.30;101178.00;;;;4988207;28;20210;-50
2022/05/27 05:58:03;;;;;;;1.70;1.60;;;21.00;58.30;22.30;101187.00;;;;4992298;28;20194;-49
2022/05/27 06:00:28;;;;;;;1.60;1.50;;;21.00;58.30;22.30;101185.00;;;;4992679;28;20231;-49
2022/05/27 06:02:54;;;;;;;1.97;1.80;;;21.00;58.30;22.20;101197.00;;;;4988132;28;20215;-50
2022/05/27 06:05:20;;;;;;;1.80;1.70;;;21.00;58.40;22.20;101195.00;;;;4988342;28;20176;-50
2022/05/27 06:07:47;;;;;;;1.57;1.47;;;21.00;58.40;22.20;101191.00;;;;4989402;28;20182;-49
2022/05/27 06:10:15;;;;;;;1.60;1.50;;;21.00;58.40;22.20;101195.00;;;;4988406;28;20193;-49
2022/05/27 06:12:40;;;;;;;1.93;1.73;;;21.00;58.40;22.20;101196.00;;;;4989325;28;20242;-49
2022/05/27 06:15:09;;;;;;;3.57;1.70;;;20.90;58.40;22.20;101196.00;;;;4987324;28;20620;-50
2022/05/27 06:17:35;;;;;;;1.83;1.60;;;20.90;58.40;22.20;101200.00;;;;4987622;28;20188;-49
2022/05/27 06:20:01;;;;;;;1.80;1.67;;;20.90;58.40;22.20;101208.00;;;;4987834;28;20200;-49
2022/05/27 06:22:27;;;;;;;1.70;1.40;;;20.90;58.40;22.20;101207.00;;;;4987666;28;20270;-49
2022/05/27 06:24:53;;;;;;;1.87;1.70;;;20.90;58.40;22.20;101205.00;;;;5005248;28;20170;-48
2022/05/27 06:27:18;;;;;;;1.87;1.70;;;20.90;58.40;22.20;101216.00;;;;4997367;28;20184;-49
2022/05/27 06:35:12;;;;;;;1.40;1.30;;;20.90;58.40;22.10;101219.00;;;;4989104;28;20660;-49
2022/05/27 06:37:38;;;;;;;1.70;1.60;;;20.90;58.40;22.10;101223.00;;;;4994054;28;20170;-49
2022/05/27 06:40:05;;;;;;;1.60;1.50;;;20.90;58.40;22.10;101212.00;;;;4993560;28;20193;-49
2022/05/27 06:42:31;;;;;;;1.50;1.40;;;20.80;58.30;22.10;101210.00;;;;4994563;28;20174;-49
2022/05/27 06:44:57;;;;;;;1.73;1.60;;;20.80;58.30;22.10;101205.00;;;;4994150;28;20179;-49
2022/05/27 06:47:22;;;;;;;1.70;1.60;;;20.80;58.30;22.10;101211.00;;;;4994283;28;20179;-50
2022/05/27 06:49:48;;;;;;;1.50;1.40;;;20.80;58.40;22.10;101208.00;;;;4993904;28;20627;-49
2022/05/27 06:52:15;;;;;;;1.70;1.60;;;20.80;58.40;21.80;101210.00;;;;4993021;28;20402;-49
2022/05/27 06:54:44;;;;;;;1.77;1.67;;;20.80;58.40;22.10;101208.00;;;;4993771;28;20664;-48
2022/05/27 06:57:10;;;;;;;1.50;1.40;;;20.80;58.40;22.10;101219.00;;;;4994363;28;20249;-49
2022/05/27 06:59:36;;;;;;;2.37;1.60;;;20.80;59.00;22.10;101211.00;;;;4993931;28;20195;-49
2022/05/27 07:02:02;;;;;;;1.70;1.60;;;20.80;58.40;22.00;101211.00;;;;4993907;28;20508;-50
2022/05/27 07:04:28;;;;;;;1.50;1.40;;;20.80;58.40;22.10;101225.00;;;;4997065;28;20285;-50
2022/05/27 07:06:54;;;;;;;1.90;1.70;;;20.80;58.40;22.00;101222.00;;;;4996755;28;20192;-48
2022/05/27 07:09:21;;;;;;;1.57;1.47;;;20.80;58.40;22.00;101230.00;;;;4977232;28;20179;-49
2022/05/27 07:11:48;;;;;;;1.70;1.60;;;20.80;58.50;22.00;101232.00;;;;4993799;28;20534;-50
2022/05/27 07:14:14;;;;;;;1.83;1.70;;;20.80;58.40;22.00;101226.00;;;;4994381;28;20281;-48
2022/05/27 07:16:43;;;;;;;1.70;1.60;;;20.70;58.40;22.00;101227.00;;;;4997156;28;20322;-49
2022/05/27 07:19:09;;;;;;;1.60;1.50;;;20.80;58.50;22.00;101227.00;;;;4997569;28;20616;-49
2022/05/27 07:21:40;;;;;;;1.80;1.60;;;20.70;58.40;22.00;101236.00;;;;4998250;28;20197;-49
2022/05/27 07:24:10;;;;;;;1.60;1.50;;;20.80;58.50;22.00;101222.00;;;;4996990;28;20176;-50
2022/05/27 07:26:36;;;;;;;1.60;1.50;;;20.70;58.40;22.00;101231.00;;;;4994360;28;20269;-50
2022/05/27 07:29:03;;;;;;;1.70;1.60;;;20.70;58.40;22.00;101219.00;;;;4993462;28;20174;-50
2022/05/27 07:31:29;;;;;;;1.43;1.33;;;20.70;58.40;22.00;101223.00;;;;4993458;28;20281;-49
2022/05/27 07:33:56;;;;;;;1.73;1.63;;;20.70;58.50;22.00;101222.00;;;;4993963;28;20565;-49
2022/05/27 07:36:21;;;;;;;1.50;1.40;;;20.70;58.50;22.00;101223.00;;;;4993508;28;20275;-49
2022/05/27 07:38:51;;;;;;;1.90;1.70;;;20.70;58.50;22.00;101208.00;;;;4993441;28;20558;-49
2022/05/27 07:41:16;;;;;;;1.67;1.57;;;20.70;58.50;22.00;101212.00;;;;4992070;28;20241;-49
2022/05/27 07:43:42;;;;;;;1.90;1.50;;;20.70;58.60;22.00;101218.00;;;;4993765;28;20206;-50
2022/05/27 07:46:08;;;;;;;1.80;1.60;;;20.70;58.60;22.00;101223.00;;;;4993966;28;20172;-49
2022/05/27 07:48:33;;;;;;;1.60;1.50;;;20.70;58.60;21.90;101239.00;;;;4988445;28;20172;-49
2022/05/27 07:50:59;;;;;;;2.03;1.33;;;20.70;58.60;21.90;101234.00;;;;4990377;28;20187;-50
2022/05/27 07:53:25;;;;;;;1.60;1.50;;;20.70;58.70;21.90;101235.00;;;;4990898;28;20170;-49
2022/05/27 07:55:51;;;;;;;2.00;1.50;;;20.70;58.70;21.90;101247.00;;;;4991012;28;20220;-49
2022/05/27 07:58:16;;;;;;;1.57;1.47;;;20.70;58.80;21.90;101239.00;;;;4990486;28;20222;-50
2022/05/27 08:00:42;;;;;;;3.00;1.73;;;20.70;58.90;21.90;101228.00;;;;4990632;28;20573;-50
2022/05/27 08:03:08;;;;;;;4.77;1.70;;;20.70;58.90;21.90;101224.00;;;;4990512;28;20175;-50
2022/05/27 08:05:35;;;;;;;2.93;1.63;;;20.70;59.00;21.90;101229.00;;;;4990293;28;20550;-49
2022/05/27 08:08:01;;;;;;;1.60;1.50;;;20.70;59.00;21.90;101218.00;;;;4990678;28;20207;-49
2022/05/27 08:10:32;;;;;;;1.80;1.70;;;20.60;59.00;21.90;101224.00;;;;4990687;28;20656;-50
2022/05/27 08:12:58;;;;;;;2.10;1.70;;;20.70;59.10;21.90;101227.00;;;;4990340;28;20175;-49
2022/05/27 08:15:24;;;;;;;1.53;1.43;;;20.70;59.10;21.90;101229.00;;;;4671810;28;20204;-49
2022/05/27 08:17:50;;;;;;;1.70;1.60;;;20.60;59.10;21.90;101230.00;;;;4989801;28;20187;-48
2022/05/27 08:20:19;;;;;;;1.60;1.50;;;20.60;59.20;21.90;101227.00;;;;4989911;28;20277;-51
2022/05/27 08:22:48;;;;;;;1.50;1.40;;;20.60;59.40;21.90;101227.00;;;;4989950;28;20179;-49
2022/05/27 08:25:14;;;;;;;1.93;1.60;;;20.60;59.30;21.90;101228.00;;;;4989551;28;20169;-49
2022/05/27 08:27:40;;;;;;;1.93;1.60;;;20.60;59.40;21.90;101227.00;;;;4989403;28;20179;-49
2022/05/27 08:30:07;;;;;;;1.70;1.60;;;20.70;59.20;21.90;101235.00;;;;4988736;28;20204;-49
2022/05/27 08:32:33;;;;;;;2.67;1.70;;;20.70;59.40;21.90;101243.00;;;;4987800;28;20237;-50
2022/05/27 08:38:01;;;;;;;3.03;1.83;;;20.70;59.50;21.90;101247.00;;;;4997767;28;20186;-50
2022/05/27 08:40:54;;;;;;;2.13;1.77;;;20.70;59.50;21.90;101251.00;;;;4994602;28;20198;-50
2022/05/27 08:43:52;;;;;;;4.30;1.70;;;20.70;59.40;21.90;101235.00;;;;4990517;28;20186;-49
2022/05/27 08:46:46;;;;;;;2.93;1.70;;;20.70;59.70;21.90;101256.00;;;;4972995;28;20188;-49
2022/05/27 08:49:22;;;;;;;2.73;1.80;;;20.70;59.70;21.90;101247.00;;;;4972309;28;20421;-50
2022/05/27 08:51:54;;;;;;;2.13;1.70;;;20.60;59.70;21.90;101250.00;;;;4972404;28;20160;-50
2022/05/27 08:54:33;;;;;;;4.17;1.77;;;20.60;59.70;21.80;101233.00;;;;4969039;28;20219;-49
2022/05/27 08:59:53;;;;;;;5.87;1.80;;;20.60;59.70;21.90;101222.00;;;;4989263;28;20297;-49
2022/05/27 09:02:30;;;;;;;1.87;1.77;;;20.60;59.80;21.90;101240.00;;;;4953536;28;20208;-49
2022/05/27 09:05:23;;;;;;;3.43;1.90;;;20.70;60.20;21.90;101232.00;;;;4969674;28;20192;-48
2022/05/27 09:07:58;;;;;;;2.70;1.93;;;20.60;60.90;21.90;101235.00;;;;4978056;28;20667;-49
2022/05/27 09:10:51;;;;;;;4.33;2.00;;;20.70;61.40;21.90;101234.00;;;;4988569;28;20211;-49
2022/05/27 09:13:49;;;;;;;4.37;1.97;;;20.60;61.30;21.90;101225.00;;;;4989000;28;20175;-51
2022/05/27 09:16:33;;;;;;;3.00;1.87;;;20.70;61.50;21.90;101210.00;;;;4793334;28;20715;-48
2022/05/27 09:19:35;;;;;;;4.20;2.20;;;20.70;61.40;21.90;101219.00;;;;4974883;28;20204;-49
2022/05/27 09:22:07;;;;;;;2.43;1.90;;;20.70;61.40;21.90;101224.00;;;;4992230;28;20448;-49
2022/05/27 09:24:57;;;;;;;3.10;2.20;;;20.70;61.30;21.90;101220.00;;;;4990662;28;20167;-48
2022/05/27 09:27:36;;;;;;;4.20;2.00;;;20.70;61.10;21.90;101221.00;;;;4993093;28;20227;-48
2022/05/27 09:30:11;;;;;;;2.90;1.80;;;20.70;61.00;21.90;101221.00;;;;4989050;28;20677;-49
2022/05/27 09:32:50;;;;;;;3.87;1.90;;;20.70;61.00;21.90;101221.00;;;;4972632;28;20232;-51
2022/05/27 09:36:09;;;;;;;4.97;2.10;;;20.70;61.00;21.90;101230.00;;;;4984707;28;20205;-49
2022/05/27 09:38:37;;;;;;;2.80;1.90;;;20.70;61.30;21.90;101211.00;;;;4954890;28;20185;-49
2022/05/27 09:41:09;;;;;;;3.73;2.10;;;20.70;61.30;21.90;101226.00;;;;4967723;28;20200;-49
2022/05/27 09:43:45;;;;;;;3.50;2.10;;;20.70;61.20;21.90;101222.00;;;;4980512;28;20194;-50
2022/05/27 09:46:23;;;;;;;7.47;2.30;;;20.70;61.30;21.90;101220.00;;;;4969209;28;20243;-49
2022/05/27 09:48:48;;;;;;;4.40;2.30;;;20.70;61.70;21.90;101228.00;;;;4970057;28;20178;-50
2022/05/27 09:51:14;;;;;;;5.63;2.50;;;20.70;62.00;21.90;101226.00;;;;4970340;28;20195;-49
2022/05/27 09:53:49;;;;;;;6.30;2.50;;;20.70;63.10;22.00;101234.00;;;;4969303;28;20167;-49
2022/05/27 09:56:16;;;;;;;5.87;2.60;;;20.70;62.90;22.00;101228.00;;;;4968714;28;20164;-48
2022/05/27 09:58:44;;;;;;;8.03;2.43;;;20.70;63.00;22.00;101232.00;;;;4971435;28;20163;-50
2022/05/27 10:01:27;;;;;;;7.90;2.70;;;20.80;62.90;22.00;101214.00;;;;4970762;28;20202;-49
2022/05/27 10:04:07;;;;;;;6.07;2.50;;;20.70;62.90;22.00;101214.00;;;;4980191;28;20183;-50
2022/05/27 10:06:35;;;;;;;5.13;2.47;;;20.80;63.00;22.00;101222.00;;;;4987843;28;20180;-49
2022/05/27 10:09:07;;;;;;;6.30;2.57;;;20.80;63.00;22.00;101207.00;;;;4989693;28;20186;-50
2022/05/27 10:11:50;;;;;;;10.70;2.87;;;20.70;62.90;22.00;101214.00;;;;4988791;28;20249;-50
2022/05/27 10:14:33;;;;;;;7.67;2.80;;;20.80;63.00;22.00;101212.00;;;;4882623;28;20195;-49
2022/05/27 10:17:05;;;;;;;8.43;2.50;;;20.80;63.00;22.00;101205.00;;;;4968555;28;20208;-49
2022/05/27 10:19:31;;;;;;;6.80;2.70;;;20.80;63.00;22.00;101201.00;;;;4977121;28;20199;-49
2022/05/27 10:21:59;;;;;;;8.43;2.60;;;20.80;62.70;22.00;101210.00;;;;4989104;28;20206;-49
2022/05/27 10:24:36;;;;;;;7.10;2.50;;;20.80;62.60;22.00;101206.00;;;;4989240;28;20175;-50
2022/05/27 10:27:15;;;;;;;6.17;2.73;;;20.80;62.60;22.00;101211.00;;;;4974546;28;20230;-50
2022/05/27 10:29:56;;;;;;;5.00;2.37;;;20.80;62.60;22.00;101207.00;;;;4988984;28;20207;-50
2022/05/27 10:32:42;;;;;;;5.53;2.50;;;20.80;62.60;22.00;101211.00;;;;4989983;28;20546;-50
2022/05/27 10:35:30;;;;;;;5.80;2.50;;;20.80;62.70;22.00;101196.00;;;;4990282;28;20198;-50
2022/05/27 10:38:10;;;;;;;6.73;2.70;;;20.80;62.70;22.00;101197.00;;;;4987052;28;20676;-50
2022/05/27 10:41:19;;;;;;;3.20;2.20;;;20.80;62.80;22.00;101204.00;;;;4988031;28;20247;-51
2022/05/27 10:44:00;;;;;;;10.10;2.77;;;20.80;62.60;22.00;101200.00;;;;4973852;28;20177;-50
2022/05/27 10:46:31;;;;;;;12.37;2.63;;;20.90;62.70;22.00;101207.00;;;;4989914;28;20558;-50
2022/05/27 10:49:24;;;;;;;4.87;2.60;;;20.90;62.60;22.00;101216.00;;;;4989179;28;20236;-50
2022/05/27 10:52:49;;;;;;;6.50;2.50;;;20.90;62.60;22.00;101210.00;;;;4966943;28;20184;-51
2022/05/27 10:55:37;;;;;;;4.77;2.43;;;20.90;62.70;22.00;101211.00;;;;4984630;28;20680;-50
2022/05/27 11:02:05;;;;;;;2.70;2.07;;;20.90;62.30;22.00;101212.00;;;;4977610;28;20299;-49
2022/05/27 11:05:06;;;;;;;3.80;2.50;;;20.90;62.40;22.00;101212.00;;;;4989155;28;20633;-49
2022/05/27 11:08:05;;;;;;;6.40;2.47;;;21.00;62.40;22.00;101220.00;;;;4988690;28;20579;-50
2022/05/27 11:10:52;;;;;;;4.90;2.40;;;21.00;62.40;22.00;101213.00;;;;4968665;28;20206;-49
2022/05/27 11:16:59;;;;;;;3.97;2.30;;;21.00;62.40;22.10;101211.00;;;;4817418;28;20270;-49
2022/05/27 11:19:34;;;;;;;4.87;2.20;;;21.10;62.30;22.10;101218.00;;;;4987488;28;20196;-50
2022/05/27 11:22:17;;;;;;;3.90;2.17;;;21.00;62.10;22.10;101214.00;;;;4989226;28;20238;-49
2022/05/27 11:24:49;;;;;;;2.90;2.23;;;21.00;62.10;22.10;101204.00;;;;4959425;28;20182;-50
2022/05/27 11:27:52;;;;;;;3.10;2.10;;;21.10;62.00;22.10;101206.00;;;;4994493;28;20189;-49
2022/05/27 11:30:56;;;;;;;2.90;2.50;;;21.10;62.10;22.20;101207.00;;;;4999766;28;20188;-49
2022/05/27 11:33:41;;;;;;;4.30;2.67;;;21.10;62.00;22.20;101205.00;;;;4994271;28;20175;-49
2022/05/27 11:36:50;;;;;;;4.03;2.30;;;21.10;61.90;22.20;101200.00;;;;4992825;28;20527;-51
2022/05/27 11:39:33;;;;;;;4.53;2.20;;;21.20;62.00;22.20;101197.00;;;;4991322;28;20168;-50